New Dayton, Canada
Current Conditions -  °F | °C
As of 6:00 PM on Monday 20 Oct 2014 (Local Time) from CYQL Reporting Station
Few Clouds Few Clouds  
Wind Chill: 64°   Ceiling: Unl
Heat Index: 64°   Visibility: 40mi
Dew Point: 30°   Wind: 13mph
Humidity: 28%   Direction: 220°SW
Pressure: 29.66"   Gusts: NA
Location:  49.42°N, 112.38°W
Report Text: CYQL 210000Z 22011KT 40SM FEW150 FEW240 18/M01 A2966 RMK AC1CI1 CI TR SLP046 DENSITY ALT 4400FT
Loading
Personal Weather Stations






























Interactive Weather Map
Tropical Storm Tracking
New forecast layout! Learn more

10-Day Weather Forecast

Advertisements
Track Severe Weather on mobile